createdAt,value
2023-05-15T08:27:09.091Z,964.32
2023-05-15T08:28:09.237Z,964.33
2023-05-15T08:29:09.501Z,964.32
2023-05-15T08:30:09.753Z,964.30
2023-05-15T08:31:10.064Z,964.42
2023-05-15T08:32:10.189Z,964.43
2023-05-15T08:33:10.472Z,964.42
2023-05-15T08:34:10.648Z,964.42
2023-05-15T08:35:10.890Z,964.39
2023-05-15T08:36:11.155Z,964.37
2023-05-15T08:37:11.425Z,964.36
2023-05-15T08:38:11.629Z,964.39
2023-05-15T08:39:11.866Z,964.44
2023-05-15T08:40:12.099Z,964.43
2023-05-15T08:41:12.315Z,964.45
2023-05-15T08:42:12.633Z,964.40
2023-05-15T08:43:12.832Z,964.44
2023-05-15T08:44:13.904Z,964.46
2023-05-15T08:45:13.198Z,964.46
2023-05-15T08:46:13.476Z,964.47
2023-05-15T08:47:13.730Z,964.52
2023-05-15T08:48:14.045Z,964.49
2023-05-15T08:49:14.131Z,964.57
2023-05-15T08:50:14.273Z,964.55
2023-05-15T08:51:14.646Z,964.54
2023-05-15T08:52:14.594Z,964.54
2023-05-15T08:53:14.857Z,964.57
2023-05-15T08:54:14.956Z,964.59
2023-05-15T08:55:15.244Z,964.56
2023-05-15T08:56:15.293Z,964.60
2023-05-15T08:57:15.534Z,964.59
2023-05-15T08:58:15.710Z,964.60
2023-05-15T08:59:15.952Z,964.60
2023-05-15T09:00:16.133Z,964.56
2023-05-15T09:01:16.417Z,964.59
2023-05-15T09:02:16.527Z,964.62
2023-05-15T09:03:16.934Z,964.65
2023-05-15T09:04:16.877Z,964.66
2023-05-15T09:05:17.126Z,964.68
2023-05-15T09:06:17.264Z,964.66
2023-05-15T09:07:17.417Z,964.67
2023-05-15T09:08:17.505Z,964.67
2023-05-15T09:09:17.753Z,964.71
2023-05-15T09:10:18.800Z,964.68
2023-05-15T09:11:18.099Z,964.70
2023-05-15T09:12:18.208Z,964.74
2023-05-15T09:13:18.454Z,964.73
2023-05-15T09:14:19.102Z,964.77
2023-05-15T09:15:18.705Z,964.80
2023-05-15T09:16:19.012Z,964.78
2023-05-15T09:17:19.081Z,964.79
2023-05-15T09:18:19.304Z,964.83
2023-05-15T09:19:19.618Z,964.84
2023-05-15T09:20:19.693Z,964.88
2023-05-15T09:21:19.924Z,964.86
2023-05-15T09:22:20.131Z,964.86
2023-05-15T09:23:20.356Z,964.83
2023-05-15T09:24:20.558Z,964.80
2023-05-15T09:25:22.682Z,964.82
2023-05-15T09:26:20.887Z,964.75
2023-05-15T09:27:21.111Z,964.76
2023-05-15T09:28:21.308Z,964.75
2023-05-15T09:29:21.542Z,964.75
2023-05-15T09:30:21.645Z,964.73
2023-05-15T09:31:21.917Z,964.70
2023-05-15T09:32:22.128Z,964.74
2023-05-15T09:33:22.234Z,964.74
2023-05-15T09:34:22.406Z,964.81
2023-05-15T09:35:22.958Z,964.81
2023-05-15T09:36:22.749Z,964.79
2023-05-15T09:37:22.995Z,964.81
2023-05-15T09:38:23.089Z,964.80
2023-05-15T09:39:23.315Z,964.80
2023-05-15T09:40:23.403Z,964.88
2023-05-15T09:41:23.617Z,964.86
2023-05-15T09:42:23.751Z,964.86
2023-05-15T09:43:23.947Z,964.96
2023-05-15T09:44:24.133Z,964.92
2023-05-15T09:45:24.695Z,964.96
2023-05-15T09:46:24.661Z,964.95
2023-05-15T09:47:24.869Z,964.94
2023-05-15T09:48:24.964Z,964.96
2023-05-15T09:49:25.060Z,964.99
2023-05-15T09:50:25.273Z,964.94
2023-05-15T09:51:25.505Z,964.98
2023-05-15T09:52:25.703Z,964.91
2023-05-15T09:53:25.914Z,964.96
2023-05-15T09:54:26.023Z,964.96
2023-05-15T09:55:26.421Z,964.97
2023-05-15T09:56:26.452Z,964.96
2023-05-15T09:57:26.549Z,964.98
2023-05-15T09:58:26.686Z,964.99
2023-05-15T09:59:26.892Z,965.03
2023-05-15T10:00:27.204Z,965.05
2023-05-15T10:01:27.373Z,965.03
2023-05-15T10:02:27.516Z,965.06
2023-05-15T10:03:27.643Z,965.05
2023-05-15T10:04:27.740Z,965.06
2023-05-15T10:05:42.046Z,965.03
2023-05-15T10:06:29.163Z,964.99
2023-05-15T10:07:28.355Z,964.96
2023-05-15T10:08:28.587Z,964.93
2023-05-15T10:09:28.805Z,964.88
2023-05-15T10:10:28.909Z,964.87
2023-05-15T10:11:29.151Z,964.86
